createdAt,value
2018-08-24T00:00:20.404Z,0.00
2018-08-24T00:01:26.976Z,0.00
2018-08-24T00:02:33.523Z,0.00
2018-08-24T00:03:40.082Z,0.00
2018-08-24T00:04:46.667Z,0.00
2018-08-24T00:05:53.209Z,0.00
2018-08-24T00:06:59.773Z,0.00
2018-08-24T00:08:06.331Z,0.00
2018-08-24T00:09:12.890Z,0.00
2018-08-24T00:10:19.452Z,0.00
2018-08-24T00:11:26.006Z,0.00
2018-08-24T00:12:32.553Z,0.00
2018-08-24T00:13:39.112Z,0.00
2018-08-24T00:14:45.668Z,0.00
2018-08-24T00:15:52.217Z,0.00
2018-08-24T00:16:59.774Z,0.00
2018-08-24T00:18:05.324Z,0.00
2018-08-24T00:19:11.869Z,0.00
2018-08-24T00:20:18.610Z,0.00
2018-08-24T00:21:24.967Z,0.00
2018-08-24T00:22:31.528Z,0.00
2018-08-24T00:23:38.057Z,0.00
2018-08-24T00:24:44.632Z,0.00
2018-08-24T00:25:51.169Z,0.00
2018-08-24T00:26:57.719Z,0.00
2018-08-24T00:28:04.256Z,0.00
2018-08-24T00:29:10.804Z,0.00
2018-08-24T00:30:17.352Z,0.00
2018-08-24T00:31:23.901Z,0.00
2018-08-24T00:32:30.439Z,0.00
2018-08-24T00:33:36.975Z,0.00
2018-08-24T00:34:43.520Z,0.00
2018-08-24T00:35:50.058Z,0.00
2018-08-24T00:36:56.613Z,0.00
2018-08-24T00:38:03.147Z,0.00
2018-08-24T00:39:09.700Z,0.00
2018-08-24T00:40:16.234Z,0.00
2018-08-24T00:41:22.775Z,0.00
2018-08-24T00:42:29.320Z,0.00
2018-08-24T00:43:35.850Z,0.00
2018-08-24T00:44:42.396Z,0.00
2018-08-24T00:45:48.935Z,0.00
2018-08-24T00:46:55.480Z,0.00
2018-08-24T00:48:02.007Z,0.00
2018-08-24T00:49:08.550Z,0.00
2018-08-24T00:50:15.100Z,0.00
2018-08-24T00:51:21.637Z,0.00
2018-08-24T00:52:28.369Z,0.00
2018-08-24T00:53:34.718Z,0.00
2018-08-24T00:54:41.253Z,0.00
2018-08-24T00:55:47.808Z,0.00
2018-08-24T00:56:55.345Z,0.00
2018-08-24T00:58:00.890Z,0.00
2018-08-24T00:59:07.433Z,0.00
2018-08-24T01:00:13.984Z,0.00
2018-08-24T01:01:20.511Z,0.00
2018-08-24T01:02:27.067Z,0.00
2018-08-24T01:03:33.603Z,0.00
2018-08-24T01:04:40.138Z,0.00
2018-08-24T01:05:46.668Z,0.00
2018-08-24T01:06:53.219Z,0.00
2018-08-24T01:07:59.763Z,0.00
2018-08-24T01:09:06.289Z,0.00
2018-08-24T01:10:12.862Z,0.00
2018-08-24T01:11:19.389Z,0.00
2018-08-24T01:12:25.950Z,0.00
2018-08-24T01:13:32.465Z,0.00
2018-08-24T01:14:38.999Z,0.00
2018-08-24T01:15:45.540Z,0.00
2018-08-24T01:16:52.086Z,0.00
2018-08-24T01:17:58.633Z,0.00
2018-08-24T01:19:05.682Z,0.00
2018-08-24T01:20:11.725Z,0.00
2018-08-24T01:21:19.272Z,0.00
2018-08-24T01:22:24.848Z,0.00
2018-08-24T01:23:31.368Z,0.00
2018-08-24T01:24:38.423Z,0.00
2018-08-24T01:25:44.449Z,0.00
2018-08-24T01:26:50.998Z,0.00
2018-08-24T01:27:57.559Z,0.00
2018-08-24T01:29:04.110Z,0.00
2018-08-24T01:30:10.672Z,0.00
2018-08-24T01:31:17.204Z,0.00
2018-08-24T01:32:23.766Z,0.00
2018-08-24T01:33:30.309Z,0.00
2018-08-24T01:34:36.848Z,0.00
2018-08-24T01:35:43.408Z,0.00
2018-08-24T01:36:49.947Z,0.00
2018-08-24T01:37:56.508Z,0.00
2018-08-24T01:39:03.053Z,0.00
2018-08-24T01:40:09.606Z,0.00
2018-08-24T01:41:16.138Z,0.00
2018-08-24T01:42:22.696Z,0.00
2018-08-24T01:43:29.239Z,0.00
2018-08-24T01:44:35.778Z,0.00
2018-08-24T01:45:42.317Z,0.00
2018-08-24T01:46:48.863Z,0.00
2018-08-24T01:47:55.412Z,0.00
2018-08-24T01:49:01.954Z,0.00
2018-08-24T01:50:09.481Z,0.00
2018-08-24T01:51:15.026Z,0.00
2018-08-24T01:52:21.578Z,0.00
2018-08-24T01:53:28.120Z,0.00
2018-08-24T01:54:34.664Z,0.00
2018-08-24T01:55:41.187Z,0.00
2018-08-24T01:56:47.725Z,0.00
2018-08-24T01:57:54.277Z,0.00
2018-08-24T01:59:00.818Z,0.00
2018-08-24T02:00:07.342Z,0.00
2018-08-24T02:01:13.876Z,0.00
2018-08-24T02:02:20.397Z,0.00
2018-08-24T02:03:27.448Z,0.00
2018-08-24T02:04:33.476Z,0.00
2018-08-24T02:05:40.006Z,0.00
2018-08-24T02:06:46.539Z,0.00
2018-08-24T02:07:53.075Z,0.00
2018-08-24T02:08:59.591Z,0.00
2018-08-24T02:10:06.127Z,0.00
2018-08-24T02:11:12.661Z,0.00
2018-08-24T02:12:19.269Z,0.00
2018-08-24T02:13:25.710Z,0.00
2018-08-24T02:14:32.747Z,0.00
2018-08-24T02:15:38.755Z,0.00
2018-08-24T02:16:45.304Z,0.00
2018-08-24T02:17:51.828Z,0.00
2018-08-24T02:18:58.332Z,0.00
2018-08-24T02:20:04.871Z,0.00
2018-08-24T02:21:11.401Z,0.00
2018-08-24T02:22:17.930Z,0.00
2018-08-24T02:23:24.465Z,0.00
2018-08-24T02:24:30.980Z,0.00
2018-08-24T02:25:37.502Z,0.00
2018-08-24T02:26:44.022Z,0.00
2018-08-24T02:27:50.555Z,0.00
2018-08-24T02:28:57.083Z,0.00
2018-08-24T02:30:03.610Z,0.00
2018-08-24T02:31:10.174Z,0.00
2018-08-24T02:32:16.656Z,0.00
2018-08-24T02:33:23.289Z,0.00
2018-08-24T02:34:29.717Z,0.00
2018-08-24T02:35:36.238Z,0.00
2018-08-24T02:36:42.768Z,0.00
2018-08-24T02:37:49.295Z,0.00
2018-08-24T02:38:55.825Z,0.00
2018-08-24T02:40:02.837Z,0.00
2018-08-24T02:41:08.871Z,0.00
2018-08-24T02:42:15.384Z,0.00
2018-08-24T02:43:22.410Z,0.00
2018-08-24T02:44:28.441Z,0.00
2018-08-24T02:45:34.943Z,0.00
2018-08-24T02:46:41.452Z,0.00
2018-08-24T02:47:47.976Z,0.00
2018-08-24T02:48:54.503Z,0.00
2018-08-24T02:50:01.005Z,0.00
2018-08-24T02:51:07.521Z,0.00
2018-08-24T02:52:14.036Z,0.00
2018-08-24T02:53:20.589Z,0.00
2018-08-24T02:54:27.073Z,0.00
2018-08-24T02:55:33.591Z,0.00
2018-08-24T02:56:40.112Z,0.00
2018-08-24T02:57:46.665Z,0.00
2018-08-24T02:58:53.142Z,0.00
2018-08-24T02:59:59.653Z,0.00
2018-08-24T03:01:06.155Z,0.00
2018-08-24T03:02:12.670Z,0.00
2018-08-24T03:03:19.269Z,0.00
2018-08-24T03:04:25.703Z,0.00
2018-08-24T03:05:32.320Z,0.00
2018-08-24T03:06:38.711Z,0.00
2018-08-24T03:07:45.219Z,0.00
2018-08-24T03:08:51.734Z,0.00
2018-08-24T03:09:58.236Z,0.00
2018-08-24T03:11:04.740Z,0.00
2018-08-24T03:12:11.247Z,0.00
2018-08-24T03:13:17.746Z,0.00
2018-08-24T03:14:24.741Z,0.00
2018-08-24T03:15:30.748Z,0.00
2018-08-24T03:16:37.247Z,0.00
2018-08-24T03:17:43.739Z,0.00
2018-08-24T03:18:50.242Z,0.00
2018-08-24T03:19:56.718Z,0.00
2018-08-24T03:21:03.232Z,0.00
2018-08-24T03:22:09.725Z,0.00
2018-08-24T03:23:16.216Z,0.00
2018-08-24T03:24:22.714Z,0.00
2018-08-24T03:25:29.215Z,0.00
2018-08-24T03:26:35.695Z,0.00
2018-08-24T03:27:42.195Z,0.00
2018-08-24T03:28:48.691Z,0.00
2018-08-24T03:29:55.293Z,0.00
2018-08-24T03:31:01.674Z,0.00
2018-08-24T03:32:08.165Z,0.00
2018-08-24T03:33:14.669Z,0.00
2018-08-24T03:34:21.275Z,0.00
2018-08-24T03:35:27.648Z,0.00
2018-08-24T03:36:34.175Z,0.00
2018-08-24T03:37:40.628Z,0.00
2018-08-24T03:38:47.122Z,0.00
2018-08-24T03:39:53.610Z,0.00
2018-08-24T03:41:00.093Z,0.00
2018-08-24T03:42:06.591Z,0.00
2018-08-24T03:43:13.083Z,0.00
2018-08-24T03:44:19.572Z,0.00
2018-08-24T03:45:26.062Z,0.00
2018-08-24T03:46:32.543Z,0.00
2018-08-24T03:47:39.039Z,0.00
2018-08-24T03:48:45.530Z,0.00
2018-08-24T03:49:52.027Z,0.00
2018-08-24T03:50:58.515Z,0.00
2018-08-24T03:52:06.000Z,0.00
2018-08-24T03:53:11.512Z,0.00
2018-08-24T03:54:17.987Z,0.00
2018-08-24T03:55:24.474Z,0.00
2018-08-24T03:56:30.959Z,0.00
2018-08-24T03:57:37.449Z,0.00
2018-08-24T03:58:43.937Z,0.00
2018-08-24T03:59:50.429Z,0.00
2018-08-24T04:00:56.900Z,0.00
2018-08-24T04:02:03.394Z,0.00
2018-08-24T04:03:09.871Z,0.00
2018-08-24T04:04:16.867Z,0.00
2018-08-24T04:05:22.854Z,0.00
2018-08-24T04:06:29.342Z,0.00
2018-08-24T04:07:35.824Z,0.00
2018-08-24T04:08:42.311Z,0.00
2018-08-24T04:09:48.803Z,0.00
2018-08-24T04:10:55.286Z,0.00
2018-08-24T04:12:01.778Z,0.00
2018-08-24T04:13:08.263Z,0.00
2018-08-24T04:14:14.746Z,0.00
2018-08-24T04:15:21.238Z,0.00
2018-08-24T04:16:27.722Z,0.00
2018-08-24T04:17:34.692Z,0.00
2018-08-24T04:18:40.686Z,0.00
2018-08-24T04:19:47.274Z,0.00
2018-08-24T04:20:53.662Z,0.00
2018-08-24T04:22:00.149Z,0.00
2018-08-24T04:23:06.630Z,0.00
2018-08-24T04:24:13.131Z,5.63
2018-08-24T04:25:19.600Z,5.63
2018-08-24T04:26:26.090Z,5.63
2018-08-24T04:27:32.572Z,5.63
2018-08-24T04:28:39.067Z,5.63
2018-08-24T04:29:45.549Z,5.63
2018-08-24T04:30:52.036Z,5.63
2018-08-24T04:31:58.517Z,11.25
2018-08-24T04:33:05.515Z,11.25
2018-08-24T04:34:11.495Z,11.25
2018-08-24T04:35:17.982Z,11.25
2018-08-24T04:36:25.456Z,11.25
2018-08-24T04:37:30.938Z,11.25
2018-08-24T04:38:37.433Z,16.88
2018-08-24T04:39:43.919Z,16.88
2018-08-24T04:40:50.400Z,16.88
2018-08-24T04:41:56.886Z,22.50
2018-08-24T04:43:03.360Z,22.50
2018-08-24T04:44:09.847Z,22.50
2018-08-24T04:45:16.341Z,28.13
2018-08-24T04:46:22.811Z,28.13
2018-08-24T04:47:29.306Z,28.13
2018-08-24T04:48:35.793Z,28.13
2018-08-24T04:49:42.286Z,33.75
2018-08-24T04:50:49.260Z,33.75
2018-08-24T04:51:55.237Z,33.75
2018-08-24T04:53:02.231Z,33.75
2018-08-24T04:54:08.218Z,33.75
2018-08-24T04:55:14.698Z,39.38
2018-08-24T04:56:21.293Z,39.38
2018-08-24T04:57:27.658Z,39.38
2018-08-24T04:58:34.155Z,39.38
2018-08-24T04:59:40.643Z,39.38
2018-08-24T05:00:47.131Z,39.38
2018-08-24T05:01:53.598Z,45.00
2018-08-24T05:03:00.090Z,45.00
2018-08-24T05:04:06.572Z,45.00
2018-08-24T05:05:13.062Z,45.00
2018-08-24T05:06:20.087Z,45.00
2018-08-24T05:07:26.028Z,45.00
2018-08-24T05:08:32.515Z,45.00
2018-08-24T05:09:39.022Z,45.00
2018-08-24T05:10:45.495Z,50.63
2018-08-24T05:11:51.976Z,50.63
2018-08-24T05:12:58.472Z,50.63
2018-08-24T05:14:04.963Z,50.63
2018-08-24T05:15:11.464Z,56.25
2018-08-24T05:16:17.929Z,56.25
2018-08-24T05:17:24.413Z,56.25
2018-08-24T05:18:30.911Z,56.25
2018-08-24T05:19:37.396Z,61.88
2018-08-24T05:20:44.386Z,67.50
2018-08-24T05:21:50.376Z,67.50
2018-08-24T05:22:56.852Z,73.13
2018-08-24T05:24:03.349Z,73.13
2018-08-24T05:25:09.872Z,78.75
2018-08-24T05:26:16.334Z,78.75
2018-08-24T05:27:22.818Z,78.75
2018-08-24T05:28:29.316Z,78.75
2018-08-24T05:29:35.808Z,78.75
2018-08-24T05:30:42.302Z,78.75
2018-08-24T05:31:48.789Z,84.38
2018-08-24T05:32:55.283Z,84.38
2018-08-24T05:34:01.768Z,84.38
2018-08-24T05:35:08.281Z,90.00
2018-08-24T05:36:14.760Z,90.00
2018-08-24T05:37:21.246Z,95.63
2018-08-24T05:38:28.256Z,95.63
2018-08-24T05:39:34.238Z,95.63
2018-08-24T05:40:40.735Z,101.25
2018-08-24T05:41:47.223Z,101.25
2018-08-24T05:42:53.720Z,101.25
2018-08-24T05:44:00.241Z,106.88
2018-08-24T05:45:06.739Z,106.88
2018-08-24T05:46:13.234Z,112.50
2018-08-24T05:47:19.735Z,112.50
2018-08-24T05:48:26.231Z,118.13
2018-08-24T05:49:32.735Z,118.13
2018-08-24T05:50:39.246Z,118.13
2018-08-24T05:51:46.265Z,123.75
2018-08-24T05:52:52.253Z,123.75
2018-08-24T05:53:58.769Z,129.38
2018-08-24T05:55:05.312Z,129.38
2018-08-24T05:56:11.788Z,135.00
2018-08-24T05:57:18.291Z,146.25
2018-08-24T05:58:24.809Z,157.50
2018-08-24T05:59:31.315Z,168.75
2018-08-24T06:00:37.834Z,174.38
2018-08-24T06:01:44.346Z,180.00
2018-08-24T06:02:50.855Z,185.63
2018-08-24T06:03:57.388Z,185.63
2018-08-24T06:05:04.219Z,185.63
2018-08-24T06:06:10.434Z,185.63
2018-08-24T06:07:16.972Z,185.63
2018-08-24T06:08:23.467Z,180.00
2018-08-24T06:09:30.003Z,174.38
2018-08-24T06:10:36.529Z,174.38
2018-08-24T06:11:43.056Z,174.38
2018-08-24T06:12:49.583Z,174.38
2018-08-24T06:13:56.110Z,180.00
2018-08-24T06:15:02.639Z,180.00
2018-08-24T06:16:09.682Z,185.63
2018-08-24T06:17:15.697Z,185.63
2018-08-24T06:18:22.244Z,191.25
2018-08-24T06:19:28.765Z,196.88
2018-08-24T06:20:35.370Z,202.50
2018-08-24T06:21:41.833Z,208.13
2018-08-24T06:22:48.392Z,219.38
2018-08-24T06:23:54.919Z,236.25
2018-08-24T06:25:01.445Z,247.50
2018-08-24T06:26:07.994Z,253.13
2018-08-24T06:27:14.536Z,247.50
2018-08-24T06:28:21.076Z,241.88
2018-08-24T06:29:27.631Z,247.50
2018-08-24T06:30:34.177Z,258.75
2018-08-24T06:31:40.720Z,270.00
2018-08-24T06:32:47.324Z,286.88
2018-08-24T06:33:53.828Z,298.13
2018-08-24T06:35:00.386Z,315.00
2018-08-24T06:36:06.940Z,348.75
2018-08-24T06:37:13.518Z,365.63
2018-08-24T06:38:20.096Z,388.13
2018-08-24T06:39:26.660Z,388.13
2018-08-24T06:40:33.750Z,399.38
2018-08-24T06:41:39.876Z,405.00
2018-08-24T06:42:46.427Z,410.63
2018-08-24T06:43:53.036Z,399.38
2018-08-24T06:45:01.120Z,382.50
2018-08-24T06:46:06.251Z,365.63
2018-08-24T06:47:12.881Z,354.38
2018-08-24T06:48:19.476Z,354.38
2018-08-24T06:49:26.093Z,360.00
2018-08-24T06:50:33.273Z,360.00
2018-08-24T06:51:39.333Z,360.00
2018-08-24T06:52:45.932Z,360.00
2018-08-24T06:53:53.135Z,354.38
2018-08-24T06:54:59.173Z,343.13
2018-08-24T06:56:05.827Z,331.88
2018-08-24T06:57:12.423Z,315.00
2018-08-24T06:58:19.030Z,303.75
2018-08-24T06:59:25.668Z,303.75
2018-08-24T07:00:32.283Z,298.13
2018-08-24T07:01:38.914Z,292.50
2018-08-24T07:02:45.539Z,292.50
2018-08-24T07:03:52.145Z,286.88
2018-08-24T07:04:58.760Z,292.50
2018-08-24T07:06:05.388Z,281.25
2018-08-24T07:07:12.006Z,275.63
2018-08-24T07:08:18.620Z,281.25
2018-08-24T07:09:25.255Z,286.88
2018-08-24T07:10:31.869Z,286.88
2018-08-24T07:11:38.482Z,286.88
2018-08-24T07:12:45.128Z,281.25
2018-08-24T07:13:52.220Z,258.75
2018-08-24T07:14:58.328Z,225.00
2018-08-24T07:16:04.936Z,202.50
2018-08-24T07:17:11.544Z,191.25
2018-08-24T07:18:18.146Z,191.25
2018-08-24T07:19:24.744Z,185.63
2018-08-24T07:20:31.337Z,174.38
2018-08-24T07:21:37.938Z,163.13
2018-08-24T07:22:44.537Z,151.88
2018-08-24T07:23:51.141Z,146.25
2018-08-24T07:24:57.715Z,151.88
2018-08-24T07:26:04.321Z,157.50
2018-08-24T07:27:10.911Z,180.00
2018-08-24T07:28:17.501Z,208.13
2018-08-24T07:29:24.099Z,225.00
2018-08-24T07:30:30.713Z,225.00
2018-08-24T07:31:37.305Z,219.38
2018-08-24T07:32:43.913Z,225.00
2018-08-24T07:33:50.516Z,230.63
2018-08-24T07:34:57.130Z,270.00
2018-08-24T07:36:03.747Z,292.50
2018-08-24T07:37:10.363Z,281.25
2018-08-24T07:38:16.986Z,270.00
2018-08-24T07:39:25.092Z,225.00
2018-08-24T07:40:30.681Z,185.63
2018-08-24T07:41:36.997Z,202.50
2018-08-24T07:42:43.470Z,219.38
2018-08-24T07:43:50.570Z,230.63
2018-08-24T07:44:56.699Z,225.00
2018-08-24T07:46:03.315Z,196.88
2018-08-24T07:47:09.935Z,163.13
2018-08-24T07:48:16.555Z,140.63
2018-08-24T07:49:23.272Z,129.38
2018-08-24T07:50:29.759Z,129.38
2018-08-24T07:51:36.402Z,140.63
2018-08-24T07:52:42.974Z,146.25
2018-08-24T07:53:49.576Z,135.00
2018-08-24T07:54:56.172Z,140.63
2018-08-24T07:56:02.775Z,163.13
2018-08-24T07:57:10.520Z,196.88
2018-08-24T07:58:15.990Z,180.00
2018-08-24T07:59:23.037Z,163.13
2018-08-24T08:00:29.281Z,163.13
2018-08-24T08:01:35.799Z,174.38
2018-08-24T08:02:42.402Z,191.25
2018-08-24T08:03:48.992Z,180.00
2018-08-24T08:04:55.612Z,185.63
2018-08-24T08:06:02.207Z,168.75
2018-08-24T08:07:08.833Z,123.75
2018-08-24T08:08:15.405Z,101.25
2018-08-24T08:09:22.016Z,84.38
2018-08-24T08:10:28.609Z,78.75
2018-08-24T08:11:35.212Z,78.75
2018-08-24T08:12:41.831Z,78.75
2018-08-24T08:13:48.389Z,95.63
2018-08-24T08:14:54.975Z,123.75
2018-08-24T08:16:01.567Z,146.25
2018-08-24T08:17:08.178Z,151.88
2018-08-24T08:18:15.770Z,163.13
2018-08-24T08:19:21.363Z,174.38
2018-08-24T08:20:28.460Z,196.88
2018-08-24T08:21:35.054Z,185.63
2018-08-24T08:22:41.663Z,180.00
2018-08-24T08:23:47.756Z,180.00
2018-08-24T08:24:54.396Z,180.00
2018-08-24T08:26:00.972Z,174.38
2018-08-24T08:27:07.609Z,168.75
2018-08-24T08:28:14.186Z,168.75
2018-08-24T08:29:20.789Z,168.75
2018-08-24T08:30:27.396Z,168.75
2018-08-24T08:31:34.000Z,163.13
2018-08-24T08:32:40.606Z,168.75
2018-08-24T08:33:47.205Z,168.75
2018-08-24T08:34:53.811Z,174.38
2018-08-24T08:36:00.406Z,180.00
2018-08-24T08:37:08.017Z,180.00
2018-08-24T08:38:13.617Z,174.38
2018-08-24T08:39:20.236Z,174.38
2018-08-24T08:40:26.835Z,168.75
2018-08-24T08:41:33.446Z,163.13
2018-08-24T08:42:40.060Z,157.50
2018-08-24T08:43:46.669Z,157.50
2018-08-24T08:44:53.298Z,168.75
2018-08-24T08:45:59.887Z,174.38
2018-08-24T08:47:06.510Z,185.63
2018-08-24T08:48:13.113Z,196.88
2018-08-24T08:49:20.211Z,208.13
2018-08-24T08:50:26.812Z,225.00
2018-08-24T08:51:32.927Z,230.63
2018-08-24T08:52:39.545Z,241.88
2018-08-24T08:53:46.149Z,258.75
2018-08-24T08:54:52.749Z,281.25
2018-08-24T08:55:59.369Z,326.25
2018-08-24T08:57:05.992Z,365.63
2018-08-24T08:58:12.615Z,365.63
2018-08-24T08:59:19.243Z,348.75
2018-08-24T09:00:26.860Z,315.00
2018-08-24T09:01:32.499Z,286.88
2018-08-24T09:02:39.141Z,264.38
2018-08-24T09:03:45.759Z,253.13
2018-08-24T09:04:52.385Z,253.13
2018-08-24T09:05:59.062Z,264.38
2018-08-24T09:07:05.622Z,258.75
2018-08-24T09:08:12.225Z,225.00
2018-08-24T09:09:18.844Z,208.13
2018-08-24T09:10:25.447Z,213.75
2018-08-24T09:11:32.044Z,236.25
2018-08-24T09:12:38.643Z,253.13
2018-08-24T09:13:45.234Z,270.00
2018-08-24T09:14:52.327Z,331.88
2018-08-24T09:15:58.429Z,433.13
2018-08-24T09:17:05.040Z,506.25
2018-08-24T09:18:11.647Z,523.13
2018-08-24T09:19:18.274Z,534.38
2018-08-24T09:20:24.870Z,585.00
2018-08-24T09:21:31.501Z,652.50
2018-08-24T09:22:38.150Z,641.25
2018-08-24T09:23:44.807Z,579.38
2018-08-24T09:24:52.934Z,528.75
2018-08-24T09:25:58.076Z,478.13
2018-08-24T09:27:04.723Z,461.25
2018-08-24T09:28:11.384Z,472.50
2018-08-24T09:29:18.014Z,478.13
2018-08-24T09:30:25.650Z,410.63
2018-08-24T09:31:31.279Z,360.00
2018-08-24T09:32:38.951Z,343.13
2018-08-24T09:33:44.542Z,331.88
2018-08-24T09:34:51.300Z,343.13
2018-08-24T09:35:57.783Z,343.13
2018-08-24T09:37:04.384Z,360.00
2018-08-24T09:38:10.987Z,393.75
2018-08-24T09:39:17.590Z,405.00
2018-08-24T09:40:24.182Z,399.38
2018-08-24T09:41:30.774Z,405.00
2018-08-24T09:42:37.392Z,376.88
2018-08-24T09:43:43.961Z,331.88
2018-08-24T09:44:50.552Z,320.63
2018-08-24T09:45:58.120Z,315.00
2018-08-24T09:47:04.718Z,315.00
2018-08-24T09:48:10.305Z,320.63
2018-08-24T09:49:16.890Z,326.25
2018-08-24T09:50:23.480Z,320.63
2018-08-24T09:51:30.553Z,309.38
2018-08-24T09:52:36.629Z,292.50
2018-08-24T09:53:43.218Z,270.00
2018-08-24T09:54:49.788Z,253.13
2018-08-24T09:55:56.365Z,258.75
2018-08-24T09:57:03.105Z,264.38
2018-08-24T09:58:09.521Z,281.25
2018-08-24T09:59:16.088Z,281.25
2018-08-24T10:00:22.672Z,264.38
2018-08-24T10:01:29.235Z,253.13
2018-08-24T10:02:35.813Z,230.63
2018-08-24T10:03:42.378Z,225.00
2018-08-24T10:04:49.157Z,225.00
2018-08-24T10:05:55.505Z,241.88
2018-08-24T10:07:02.053Z,270.00
2018-08-24T10:08:08.617Z,303.75
2018-08-24T10:09:15.373Z,320.63
2018-08-24T10:10:21.761Z,326.25
2018-08-24T10:11:28.319Z,360.00
2018-08-24T10:12:34.907Z,399.38
2018-08-24T10:13:41.475Z,433.13
2018-08-24T10:14:48.049Z,450.00
2018-08-24T10:15:54.633Z,455.63
2018-08-24T10:17:01.216Z,483.75
2018-08-24T10:18:07.813Z,545.63
2018-08-24T10:19:14.891Z,601.88
2018-08-24T10:20:21.002Z,680.63
2018-08-24T10:21:27.613Z,765.00
2018-08-24T10:22:34.231Z,781.88
2018-08-24T10:23:40.870Z,810.00
2018-08-24T10:24:48.502Z,843.75
2018-08-24T10:25:54.149Z,815.63
2018-08-24T10:27:00.808Z,697.50
2018-08-24T10:28:07.483Z,618.75
2018-08-24T10:29:14.220Z,579.38
2018-08-24T10:30:20.805Z,590.63
2018-08-24T10:31:27.472Z,663.75
2018-08-24T10:32:34.136Z,725.63
2018-08-24T10:33:40.820Z,765.00
2018-08-24T10:34:47.493Z,810.00
2018-08-24T10:35:54.178Z,821.25
2018-08-24T10:37:00.874Z,776.25
2018-08-24T10:38:07.580Z,736.88
2018-08-24T10:39:14.288Z,686.25
2018-08-24T10:40:20.997Z,624.38
2018-08-24T10:41:27.693Z,556.88
2018-08-24T10:42:34.412Z,478.13
2018-08-24T10:43:41.107Z,466.88
2018-08-24T10:44:47.828Z,511.88
2018-08-24T10:45:54.528Z,568.13
2018-08-24T10:47:01.230Z,646.88
2018-08-24T10:48:07.935Z,765.00
2018-08-24T10:49:14.672Z,720.00
2018-08-24T10:50:21.402Z,759.38
2018-08-24T10:51:28.126Z,832.50
2018-08-24T10:52:34.853Z,781.88
2018-08-24T10:53:41.608Z,753.75
2018-08-24T10:54:48.424Z,720.00
2018-08-24T10:55:55.172Z,663.75
2018-08-24T10:57:01.958Z,759.38
2018-08-24T10:58:09.272Z,793.13
2018-08-24T10:59:15.542Z,781.88
2018-08-24T11:00:22.340Z,826.88
2018-08-24T11:01:29.142Z,810.00
2018-08-24T11:02:35.964Z,753.75
2018-08-24T11:03:42.816Z,770.63
2018-08-24T11:04:49.606Z,832.50
2018-08-24T11:05:56.436Z,855.00
2018-08-24T11:07:03.283Z,793.13
2018-08-24T11:08:10.111Z,686.25
2018-08-24T11:09:16.936Z,607.50
2018-08-24T11:10:23.787Z,528.75
2018-08-24T11:11:30.603Z,478.13
2018-08-24T11:12:37.425Z,427.50
2018-08-24T11:13:44.217Z,405.00
2018-08-24T11:14:51.007Z,466.88
2018-08-24T11:15:57.795Z,585.00
2018-08-24T11:17:05.069Z,669.38
2018-08-24T11:18:11.349Z,776.25
2018-08-24T11:19:18.272Z,781.88
2018-08-24T11:20:25.016Z,781.88
2018-08-24T11:21:31.810Z,888.75
2018-08-24T11:22:38.687Z,770.63
2018-08-24T11:23:45.592Z,753.75
2018-08-24T11:24:52.693Z,646.88
2018-08-24T11:25:59.425Z,748.13
2018-08-24T11:27:06.348Z,843.75
2018-08-24T11:28:13.327Z,860.63
2018-08-24T11:29:20.388Z,883.13
2018-08-24T11:30:27.445Z,916.88
2018-08-24T11:31:34.541Z,990.00
2018-08-24T11:32:42.268Z,793.13
2018-08-24T11:33:48.805Z,1023.75
2018-08-24T11:34:55.992Z,1040.63
2018-08-24T11:36:03.275Z,1080.00
2018-08-24T11:37:10.486Z,1063.13
2018-08-24T11:38:17.732Z,1108.13
2018-08-24T11:39:25.028Z,1130.63
2018-08-24T11:40:32.361Z,793.13
2018-08-24T11:41:39.702Z,731.25
2018-08-24T11:42:46.910Z,860.63
2018-08-24T11:43:54.134Z,855.00
2018-08-24T11:45:01.335Z,731.25
2018-08-24T11:46:08.480Z,776.25
2018-08-24T11:47:15.607Z,731.25
2018-08-24T11:48:23.698Z,736.88
2018-08-24T11:49:29.774Z,742.50
2018-08-24T11:50:36.847Z,663.75
2018-08-24T11:51:43.910Z,810.00
2018-08-24T11:52:51.942Z,871.88
2018-08-24T11:53:58.053Z,523.13
2018-08-24T11:55:05.590Z,438.75
2018-08-24T11:56:12.134Z,450.00
2018-08-24T11:57:19.155Z,483.75
2018-08-24T11:58:26.136Z,534.38
2018-08-24T11:59:33.107Z,607.50
2018-08-24T12:00:40.094Z,815.63
2018-08-24T12:01:47.065Z,1125.00
2018-08-24T12:02:53.989Z,1231.88
2018-08-24T12:04:01.039Z,1226.25
2018-08-24T12:05:08.110Z,1231.88
2018-08-24T12:06:15.306Z,1248.75
2018-08-24T12:07:22.503Z,1254.38
2018-08-24T12:08:30.720Z,1096.88
2018-08-24T12:09:37.047Z,736.88
2018-08-24T12:10:44.596Z,1108.13
2018-08-24T12:11:51.991Z,1175.63
2018-08-24T12:12:58.848Z,821.25
2018-08-24T12:14:06.160Z,748.13
2018-08-24T12:15:13.452Z,815.63
2018-08-24T12:16:20.736Z,877.50
2018-08-24T12:17:28.006Z,1102.50
2018-08-24T12:18:35.337Z,1057.50
2018-08-24T12:19:43.175Z,663.75
2018-08-24T12:20:50.019Z,641.25
2018-08-24T12:21:57.323Z,973.13
2018-08-24T12:23:04.640Z,613.13
2018-08-24T12:24:12.437Z,826.88
2018-08-24T12:25:19.287Z,798.75
2018-08-24T12:26:26.640Z,787.50
2018-08-24T12:27:33.979Z,793.13
2018-08-24T12:28:41.346Z,810.00
2018-08-24T12:29:48.731Z,798.75
2018-08-24T12:30:56.152Z,770.63
2018-08-24T12:32:03.543Z,765.00
2018-08-24T12:33:11.012Z,781.88
2018-08-24T12:34:18.629Z,776.25
2018-08-24T12:35:25.838Z,753.75
2018-08-24T12:36:33.285Z,793.13
2018-08-24T12:37:40.711Z,810.00
2018-08-24T12:38:48.660Z,832.50
2018-08-24T12:39:55.619Z,821.25
2018-08-24T12:41:03.101Z,815.63
2018-08-24T12:42:10.567Z,787.50
2018-08-24T12:43:18.052Z,793.13
2018-08-24T12:44:25.532Z,804.38
2018-08-24T12:45:33.021Z,815.63
2018-08-24T12:46:40.539Z,855.00
2018-08-24T12:47:48.038Z,826.88
2018-08-24T12:48:55.545Z,804.38
2018-08-24T12:50:03.048Z,793.13
2018-08-24T12:51:10.558Z,821.25
2018-08-24T12:52:18.053Z,849.38
2018-08-24T12:53:25.540Z,849.38
2018-08-24T12:54:33.034Z,855.00
2018-08-24T12:55:40.529Z,849.38
2018-08-24T12:56:48.047Z,860.63
2018-08-24T12:57:55.524Z,810.00
2018-08-24T12:59:03.020Z,826.88
2018-08-24T13:00:11.008Z,821.25
2018-08-24T13:01:17.984Z,849.38
2018-08-24T13:02:25.454Z,736.88
2018-08-24T13:03:32.905Z,675.00
2018-08-24T13:04:40.317Z,573.75
2018-08-24T13:05:47.672Z,973.13
2018-08-24T13:06:55.042Z,1012.50
2018-08-24T13:08:02.418Z,978.75
2018-08-24T13:09:09.777Z,675.00
2018-08-24T13:10:17.588Z,590.63
2018-08-24T13:11:24.461Z,573.75
2018-08-24T13:12:31.702Z,579.38
2018-08-24T13:13:38.947Z,900.00
2018-08-24T13:14:46.187Z,860.63
2018-08-24T13:15:53.400Z,624.38
2018-08-24T13:17:00.628Z,573.75
2018-08-24T13:18:07.852Z,838.13
2018-08-24T13:19:15.088Z,613.13
2018-08-24T13:20:22.300Z,489.38
2018-08-24T13:21:29.528Z,495.00
2018-08-24T13:22:36.656Z,500.63
2018-08-24T13:23:43.794Z,461.25
2018-08-24T13:24:50.926Z,427.50
2018-08-24T13:25:58.519Z,382.50
2018-08-24T13:27:05.166Z,348.75
2018-08-24T13:28:12.179Z,309.38
2018-08-24T13:29:19.197Z,275.63
2018-08-24T13:30:26.226Z,292.50
2018-08-24T13:31:33.737Z,281.25
2018-08-24T13:32:40.208Z,258.75
2018-08-24T13:33:47.658Z,241.88
2018-08-24T13:34:54.126Z,258.75
2018-08-24T13:36:01.059Z,315.00
2018-08-24T13:37:08.024Z,393.75
2018-08-24T13:38:14.907Z,427.50
2018-08-24T13:39:21.832Z,461.25
2018-08-24T13:40:28.733Z,511.88
2018-08-24T13:41:35.647Z,534.38
2018-08-24T13:42:42.546Z,562.50
2018-08-24T13:43:49.457Z,562.50
2018-08-24T13:44:56.342Z,511.88
2018-08-24T13:46:03.243Z,472.50
2018-08-24T13:47:10.206Z,478.13
2018-08-24T13:48:17.516Z,472.50
2018-08-24T13:49:23.922Z,495.00
2018-08-24T13:50:30.824Z,551.25
2018-08-24T13:51:37.689Z,585.00
2018-08-24T13:52:44.586Z,562.50
2018-08-24T13:53:51.467Z,483.75
2018-08-24T13:54:58.374Z,450.00
2018-08-24T13:56:05.760Z,438.75
2018-08-24T13:57:12.155Z,495.00
2018-08-24T13:58:19.043Z,573.75
2018-08-24T13:59:25.987Z,669.38
2018-08-24T14:00:32.805Z,691.88
2018-08-24T14:01:39.718Z,675.00
2018-08-24T14:02:46.617Z,624.38
2018-08-24T14:03:53.533Z,658.13
2018-08-24T14:05:00.956Z,832.50
2018-08-24T14:06:07.394Z,815.63
2018-08-24T14:07:14.364Z,720.00
2018-08-24T14:08:21.341Z,613.13
2018-08-24T14:09:28.346Z,686.25
2018-08-24T14:10:35.335Z,613.13